Ironton, Texas
Current Conditions -  °F | °C
As of 8:35 AM on Wednesday 22 Oct 2014 (Local Time) from KJSO Reporting Station
Clear Clear  
Wind Chill: 65°   Ceiling: Unl
Heat Index: 65°   Visibility: 7mi
Dew Point: 62°   Wind: 5mph
Humidity: 90%   Direction: 80°E
Pressure: 30.16"   Gusts: NA
Location:  31.9649°N, 95.3036°W
Report Text: KJSO 221335Z AUTO 08004KT 7SM CLR 18/16 A3016 RMK AO2 T01820165
Loading
Personal Weather Stations






























Interactive Weather Map
Tropical Storm Tracking
New forecast layout! Learn more

10-Day Weather Forecast

Advertisements
Track Severe Weather on mobile